arxmliv
arxmliv build tool
 
KWARC group
LaTeXML
About
   
 

Detailed info

Back to Homepage

List of missing_macros

No. Date Filename num_warningnum_errornum_xmargok_xmargnum_xmathok_xmathMissing macros
121201 2013-03-08 04:09:37 /0601/astro-ph.0601156 030000[{theacknowledgments}, \layoutstyle, \classification].
121202 2013-03-08 04:09:21 /0601/astro-ph.0601143 880000[\affil, \Received, \FigureFile, \email, \Accepted, \re, \KeyWords, \SetRunningHead]; 1 missing file[pasj00.cls].
121203 2013-03-08 04:09:17 /0601/astro-ph.0601144 180000[\affil, \Received, \FigureFile, \email, \Accepted, \re, \KeyWords, \SetRunningHead]; 1 missing file[pasj00.cls].
121204 2013-03-08 04:08:57 /0601/astro-ph.0601131 1190000[\arcmin, \affil, \apj, \citep, \pasj, \aaps, \apjl, \nat, \aap, \arcsec, \araa, \citestyle, \aj, \iaucirc, \keywords, \apjs, \mnras, \citet]; 2 missing files[XrU2005.cls, natbibspacing.sty].
121205 2013-03-08 04:08:56 /0601/astro-ph.0601127 040000[\ETC, \atque, \instlist, \from].
121206 2013-03-08 04:08:41 /0601/astro-ph.0601114 35210000[\subsubsubsection].
121207 2013-03-08 04:08:36 /0601/astro-ph.0601117 8190000[\affil, \citeyear, \apj, \citep, \aaps, \apjl, \plotfiddle, \aap, \nat, \aapr, \citeauthor, \araa, \tableline, \apss, \apjs, \mnras, \citet, \acknowledgements]; 1 missing file[asp2004.sty].
121208 2013-03-08 04:08:18 /0601/astro-ph.0601118 130000[\address, \TitreGlobal, \runningtitle]; 1 missing file[edp-conf.cls].
121209 2013-03-08 04:08:12 /0601/astro-ph.0601121 4230000[\affil, \articletitle, \kluwerbib, \upperandlowercase, {chapthebibliography}, \altaffiltext, \altaffilmark].
121210 2013-03-08 04:07:22 /0601/astro-ph.0601097 930000[\address, \TitreGlobal, \runningtitle]; 1 missing file[edp-conf.cls].
121211 2013-03-08 04:07:19 /0601/astro-ph.0601081 580000[{keywords}, \marginnote, \affiliation, \jvol, \jname, \jyear]; 3 missing files[ar-patch.sty, ar2e_mod.cls, ARAstroBib.sty].
121212 2013-03-08 04:07:14 /0601/astro-ph.0601078 640000[{sidewaystable*}]; 1 missing file[aalongtable.sty].
121213 2013-03-08 04:07:10 /0601/astro-ph.0601057 1520000[\fancyplain]; 1 missing file[onecolfloat.sty].
121214 2013-03-08 04:07:05 /0601/astro-ph.0601082 210000[\theappendix].
121215 2013-03-08 04:07:02 /0601/astro-ph.0601093 2150000[\lesssim, \editors, \affiliation, \keywords, \volume, \firstsection, \gtrsim, \pagerange, \jname, \pubyear]; 6 missing files[AMSbsy.sty, AMSsymb.sty, iaus.cls, AMSgen.sty, AMSfonts.sty, natbibspacing.sty].
121216 2013-03-08 04:06:40 /0601/astro-ph.0601084 2100000[\apj, \inst, \aj, \mailto, \apjl, \aap, \keywords, \sun, \email]; 1 missing file[ppmo209.sty].
121217 2013-03-08 04:06:33 /0601/astro-ph.0601069 020000[\affil]; 1 missing file[asp2004.sty].
121218 2013-03-08 04:06:32 /0601/astro-ph.0601068 230000[\affil, \la]; 1 missing file[asp2004.sty].
121219 2013-03-08 04:06:30 /0601/astro-ph.0601067 260000[\affil, \ga, \la]; 1 missing file[asp2004.sty].
121220 2013-03-08 04:06:26 /0601/astro-ph.0601070 030000[\affil, \la]; 1 missing file[asp2004.sty].
121221 2013-03-08 04:06:26 /0601/astro-ph.0601076 7130000[\ApJ, \Acta, \refitem, {Titlepage}, \Author, \includegraphics, \SetVol, \SetPages, \Title, {references}, \Acknow]; 1 missing file[acta.cls].
121222 2013-03-08 04:06:23 /0601/astro-ph.0601071 040000[\affil, \ga, \la]; 1 missing file[asp2004.sty].
121223 2013-03-08 04:06:11 /0601/astro-ph.0601059 2100000[{acknowledgments}, \editors, \affiliation, \keywords, \volume, \firstsection, \pagerange, \jname, \pubyear, \etal]; 1 missing file[iauc.cls].
121224 2013-03-08 04:06:10 /0601/astro-ph.0601054 1030000[\theappendix].
121225 2013-03-08 04:06:06 /0601/astro-ph.0601062 2100000[{acknowledgments}, \editors, \affiliation, \keywords, \volume, \firstsection, \pagerange, \jname, \pubyear, \etal]; 1 missing file[iauc.cls].
121226 2013-03-08 04:05:53 /0601/astro-ph.0601039 1410000[\theappendix].
121227 2013-03-08 04:05:49 /0601/astro-ph.0601066 1130000[\apj, \inst, \aj, \institute, \apjl, \nat, \apjs, \plotone, \volnopage, \titlerunning, \arcsec, \authorrunning, {acknowledgements}]; 1 missing file[ppmo.cls].
121228 2013-03-08 04:05:48 /0601/astro-ph.0601047 010000[\@end@institute].
121229 2013-03-08 04:05:08 /0601/astro-ph.0601027 010000[\actaa].
121230 2013-03-08 04:04:53 /0601/astro-ph.0601046 0110000[\citeauthoryear, \opencite, \surname, \institute, {opening}, {article}, \keywords, \newdisplay, \runningauthor, \acknowledgements, \inlinecite].
121231 2013-03-08 04:04:45 /0601/astro-ph.0601017 5110000[\includegraphics, \ShortTitle, \email, \FullConference, \speaker]; 1 missing file[PoS.cls].
121232 2013-03-08 04:04:45 /0601/astro-ph.0601022 160000[\@captype, \the\@captype].
121233 2013-03-08 04:04:43 /0601/astro-ph.0601021 1730000[\bezier, \psfig]; 1 missing file[psfig.tex].
121234 2013-03-08 04:04:41 /0601/astro-ph.0601030 0160000[\affil, \authormark, \apj, \aj, \epsscale, \aaps, \acknowledgments, \keywords, \paindex, \email, \reference, \plotone, {references}, \contact, \plottwo]; 1 missing file[cal05.sty].
121235 2013-03-08 04:04:33 /0601/astro-ph.0601016 120000[{keywords}, \PARstart]; 1 missing file[IEEEtran_nssmic.cls].
121236 2013-03-08 04:04:33 /0601/astro-ph.0601035 020000[\layoutstyle, \classification].
121237 2013-03-08 04:04:31 /0601/astro-ph.0601018 1160000[\colhead, \nodata, \tablehead, \rotate, \tablecolumns, \tablewidth, \tabletypesize, \la, {deluxetable}, \tablecomments, \startdata, Align, \tablecaption, \enddata]; 3 missing files[deluxetable.sty, nature_weaver_preprint.cls, aasdefs.sty].
121238 2013-03-08 04:04:25 /0601/astro-ph.0601009 910000[\theappendix].
121239 2013-03-08 04:04:22 /0601/astro-ph.0601019 230000[{theacknowledgments}, \layoutstyle, \classification].
121240 2013-03-08 04:04:22 /0601/astro-ph.0601020 020000[\epsfig, \citestyle].
121241 2013-03-08 04:04:10 /0601/astro-ph.0601011 010000[\theappendix].
121242 2013-03-08 04:04:04 /0512/quant-ph.0512209 12810000[\fancyplain].
121243 2013-03-08 04:03:45 /0601/astro-ph.0601012 070000[\xspace, \piccaption, \sidecaption, \parpic]; 3 missing files[./styles/mcite.sty, ./styles/mysidecaption.sty, ./styles/mytimes.sty].
121244 2013-03-08 04:03:36 /0512/quant-ph.0512254 2010000[\psfrag].
121245 2013-03-08 04:03:31 /0601/astro-ph.0601003 720000[\theappendix, \citeauthoryear].
121246 2013-03-08 04:02:39 /0601/astro-ph.0601002 520000[\epsfbox, \epsfxsize].
121247 2013-03-08 04:02:38 /0512/quant-ph.0512242 18190000[\issuenumber, \pacs, \addressiv, \authori, \authoriii, \addressi, \E, \headtitle, \refnum, \I, \lastevenhead, \addressiii, \headauthor, \authorii, \keywords, \authoriv, \daterec, \D, \addressii].
121248 2013-03-08 04:02:20 /0512/quant-ph.0512246 010000[\Bbb].
121249 2013-03-08 04:02:18 /0512/quant-ph.0512249 8110000[\psfrag].
121250 2013-03-08 04:02:00 /0512/quant-ph.0512232 980000[\sodauthor, \rauthor, \address, \sodtitle, \dates, \lat, \PACS, \rtitle].
121251 2013-03-08 04:01:50 /0512/quant-ph.0512238 210000[\psfrag].
121252 2013-03-08 04:01:35 /0512/quant-ph.0512218 2340000[\permil, \FloatBarrier, \rrfloor, \llfloor].
121253 2013-03-08 04:01:21 /0512/quant-ph.0512208 2720000[\unit, \FRAME].
121254 2013-03-08 04:01:21 /0512/quant-ph.0512228 2120000[\Abstract, \ArticleName, \ShortArticleName, \FirstPageHeading, \Address, \LastPageEnding, \Classification, \ArticleDates, \Author, \Email, \AuthorNameForHeading, \Keywords].
121255 2013-03-08 04:00:41 /0512/quant-ph.0512172 3220000[\placefigure]; 1 missing file[pio.sty].
121256 2013-03-08 04:00:19 /0512/quant-ph.0512202 030000[\extrasenglish, \dateenglish, \captionsenglish].
121257 2013-03-08 03:59:16 /0512/quant-ph.0512198 620000[\abstracts]; 1 missing file[ws.sty].
121258 2013-03-08 03:58:55 /0512/quant-ph.0512130 35250000[\save, \cir, \xymatrix, \xy, \theappendix, \POS, \endxy, Align, \restore, \dir, \ar]; 1 missing file[xy.sty].
121259 2013-03-08 03:58:49 /0512/quant-ph.0512125 12120000[\shortcite]; 1 missing file[named.sty].
121260 2013-03-08 03:58:16 /0512/quant-ph.0512158 390000[{acknowledgments}, \thechapter, \imprint, \department, \@currentID, \type, \mathinner, \mainmatter]; 2 missing files[afterpage.sty, mykthesis.cls].
121261 2013-03-08 03:58:12 /0512/quant-ph.0512173 010000[\normalem].
121262 2013-03-08 03:57:17 /0512/quant-ph.0512148 030000[\extrasenglish, \dateenglish, \captionsenglish].
121263 2013-03-08 03:57:04 /0512/quant-ph.0512150 1100000[{\t}].
121264 2013-03-08 03:57:03 /0512/quant-ph.0512138 720000[\TCItag, \dprod].
121265 2013-03-08 03:56:41 /0512/quant-ph.0512109 14100000[\save, \xymatrix, \xy, \POS, \endxy, Align, \restore, \dir, \ar]; 1 missing file[xy.sty].
121266 2013-03-08 03:56:21 /0512/quant-ph.0512119 1810000[\QTR].
121267 2013-03-08 03:56:02 /0512/quant-ph.0512124 6920000[\Circle]; 1 missing file[cerchio.sty].
121268 2013-03-08 03:55:42 /0512/quant-ph.0512115 8640000[\chunk, {bundle}]; 2 missing files[ecltree.sty, trees.sty].
121269 2013-03-08 03:55:41 /0512/quant-ph.0512104 2850000[\@affiliation, \acknowledgments].
121270 2013-03-08 03:55:40 /0512/quant-ph.0512111 20530000[\noitemsep]; 1 missing file[itemsep.sty].
121271 2013-03-08 03:55:29 /0512/quant-ph.0512112 4120000[\epsfbox, \epsfxsize].
121272 2013-03-08 03:55:11 /0512/quant-ph.0512122 0210000[{algorithm}, \Until, \Comment, {algorithmic}, \Statex, \Repeat, \Require, \State].
121273 2013-03-08 03:54:43 /0512/quant-ph.0512074 15610000[{comment}].
121274 2013-03-08 03:54:21 /0512/quant-ph.0512075 2480000[{definition}, {lemma}, {theorem}, {corollary}, \Tr, \qed, {proposition}]; 1 missing file[pictex.sty].
121275 2013-03-08 03:54:17 /0512/quant-ph.0512103 2340000[\pscoil, \psplot, \psaxes]; 1 missing file[pst-coil.sty].
121276 2013-03-08 03:53:43 /0512/quant-ph.0512088 1510000[\theappendix].
121277 2013-03-08 03:53:42 /0512/quant-ph.0512071 15380000[\psfrag, {psfrags}].
121278 2013-03-08 03:52:45 /0512/quant-ph.0512080 460000[\abstracts, \fpage, \fcaption, \textlineskip, \tcaption, \alphfootnote].
121279 2013-03-08 03:52:32 /0512/quant-ph.0512064 1830000[\authorinfo, \skiplinehalf, \keywords]; 1 missing file[spie.cls].
121280 2013-03-08 03:52:30 /0512/quant-ph.0512065 120000[\layoutstyle, \classification].
121281 2013-03-08 03:52:26 /0512/quant-ph.0512068 310000[\dsum].
121282 2013-03-08 03:51:34 /0512/quant-ph.0512043 850000[\bmu, \bnabla, \DeclareBoldMathCommand].
121283 2013-03-08 03:51:12 /0512/quant-ph.0512047 930000[\unit, \diiint, \dint].
121284 2013-03-08 03:51:04 /0512/quant-ph.0512032 080000[\theappendix, \apl, \pra, \ocis, \address, \email, \ol, \rmp].
121285 2013-03-08 03:50:51 /0512/quant-ph.0512038 150000[\ab, \vect, \@affiliation, \upd].
121286 2013-03-08 03:50:25 /0512/quant-ph.0512012 010000[\psfrag].
121287 2013-03-08 03:49:37 /0512/quant-ph.0512002 510000[\bezier].
121288 2013-03-08 03:49:24 /0512/q-bio.0512040 2920000[\And]; 1 missing file[nips2003e.sty].
121289 2013-03-08 03:49:18 /0512/q-bio.0512021 090000[\surname, \institute, {opening}, {article}, \keywords, \theendnotes, \email, \runningauthor, \acknowledgements].
121290 2013-03-08 03:49:13 /0512/q-bio.0512044 020000[\abstracts]; 1 missing file[ws.sty].
121291 2013-03-08 03:49:12 /0512/q-bio.0512033 6010000[\citet].
121292 2013-03-08 03:49:12 /0512/q-bio.0512043 610000[\normalem].
121293 2013-03-08 03:49:01 /0512/q-bio.0512045 310000[\geometry].
121294 2013-03-08 03:48:57 /0512/q-bio.0512035 020000[\meter].
121295 2013-03-08 03:48:51 /0512/q-bio.0512020 030000[\kword, \abst, \inst].
121296 2013-03-08 03:48:17 /0512/physics.0512218 2010000[\theappendix].
121297 2013-03-08 03:48:13 /0512/q-bio.0512019 11470000[{sidewaysfigure}, \xymatrix, \ar, \CompileMatrices]; 9 missing files[xycurve.sty, xymatrix.sty, xyline.sty, xyarrow.sty, xycmtip.sty, xycolor.sty, xyrotate.sty, xyframe.sty, xygraph.sty].
121298 2013-03-08 03:48:07 /0512/physics.0512273 710000[\theappendix].
121299 2013-03-08 03:48:01 /0512/q-bio.0512017 130000[\email, \inst, \institute]; 1 missing file[ijuc.cls].
121300 2013-03-08 03:47:12 /0512/physics.0512248 110000[\@end@institute].
121301 2013-03-08 03:47:00 /0512/physics.0512253 580000[\sodauthor, \rauthor, \address, \sodtitle, \dates, \lat, \PACS, \rtitle].
121302 2013-03-08 03:46:53 /0512/physics.0512232 120000[{keywords}, \PARstart]; 1 missing file[myclass.cls].
121303 2013-03-08 03:46:07 /0512/physics.0512193 1110000[\Circle].
121304 2013-03-08 03:45:56 /0512/physics.0512199 080000[\sodauthor, \rauthor, \address, \sodtitle, \dates, \lat, \PACS, \rtitle].
121305 2013-03-08 03:45:52 /0512/physics.0512195 150000[\ShortTitle, \email, \FullConference, \PoS, \speaker]; 1 missing file[PoS.cls].
121306 2013-03-08 03:45:46 /0512/physics.0512175 2220000[\mathinner].
121307 2013-03-08 03:45:29 /0512/physics.0512167 2110000[\layoutstyle].
121308 2013-03-08 03:45:27 /0512/physics.0512168 250000[\ls, \CIRCLE, \affiliation, \ns, {acknowledgements}]; 1 missing file[jfm.cls].
121309 2013-03-08 03:45:05 /0512/physics.0512173 1190000[\affil, \citep, \accepted, \setlastpagenum, \slugcomment, {article}, \authoraddr, \articleid, \ifgalley, \journalid, \cpright, \titlerunninghead, \acknowledgement, \authorrunninghead, \published, \revised, \citet]; 2 missing files[agu-ps.sty, agu2001.cls
121310 2013-03-08 03:44:39 /0512/physics.0512122 320000[\theendnotes, \endnote].
121311 2013-03-08 03:44:32 /0512/physics.0512139 020000[\psfig]; 1 missing file[psfig.tex].
121312 2013-03-08 03:44:15 /0512/physics.0512128 8160000[{acknowledgments}, \accepted, \paperid, {article}, \authoraddr, \authorrunninghead, \articleid, \altaffilmark, \published, \journalid, \authors, \cpright, \altaffiltext, \revised, \titlerunninghead, \received]; 1 missing file[agu2001.cls].
121313 2013-03-08 03:44:09 /0512/physics.0512115 410000[\layoutstyle].
121314 2013-03-08 03:44:03 /0512/physics.0512107 010000[\psfrag].
121315 2013-03-08 03:43:38 /0512/physics.0512097 020000[\nonum, \ead].
121316 2013-03-08 03:43:22 /0512/physics.0512093 1430000[{sidewaystable}].
121317 2013-03-08 03:42:41 /0512/physics.0512006 17310000[\theappendix].
121318 2013-03-08 03:42:27 /0512/physics.0512066 130000[\affiliation, {references}, \acknowledgments]; 1 missing file[isss7.cls].
121319 2013-03-08 03:42:19 /0512/physics.0512052 010000[\email].
121320 2013-03-08 03:42:09 /0512/physics.0512056 460000[\includegraphics, \bodymatter, \resizebox, \balance]; 2 missing files[ws.sty, balance.sty].
121321 2013-03-08 03:42:06 /0512/physics.0512035 150000[\instnr, {acknowledge}, \runningauthor, \runningtitle, \instlist]; 1 missing file[FBSart.cls].
121322 2013-03-08 03:40:57 /0512/nucl-th.0512105 010000[\extrarowheight].
121323 2013-03-08 03:40:47 /0512/nucl-th.0512104 110000[\layoutstyle].
121324 2013-03-08 03:40:43 /0512/physics.0512001 710000[\@cite].
121325 2013-03-08 03:40:38 /0512/nucl-th.0512108 020000[\layoutstyle, \classification].
121326 2013-03-08 03:40:24 /0512/nucl-th.0512100 5050000[\address, \epsfbox, \pacs, \epsfxsize, \keywords].
121327 2013-03-08 03:40:23 /0512/nucl-th.0512094 050000[\epsfbox, \abstracts, \tbl, \epsfxsize]; 1 missing file[ws.sty].
121328 2013-03-08 03:40:21 /0512/nucl-th.0512095 050000[\epsfbox, \abstracts, \tbl, \epsfxsize]; 1 missing file[ws.sty].
121329 2013-03-08 03:40:01 /0512/nucl-th.0512085 030000[{theacknowledgments}, \layoutstyle, \classification].
121330 2013-03-08 03:39:27 /0512/nucl-th.0512074 640000[\includegraphics, \abstracts, \refcite]; 1 missing file[ws.sty].
121331 2013-03-08 03:38:42 /0512/nucl-th.0512069 27910000[\overset, \iint, \tbl, \refcite, \epsfbox, \abstracts, {multline}, {subequations}, \epsfxsize]; 1 missing file[ws.sty].
121332 2013-03-08 03:38:39 /0512/nucl-th.0512037 47210000[\psfrag].
121333 2013-03-08 03:38:38 /0512/nucl-th.0512054 620000[\layoutstyle, \classification].
121334 2013-03-08 03:38:33 /0512/nucl-th.0512073 130000[{theacknowledgments}, \layoutstyle, \classification].
121335 2013-03-08 03:38:22 /0512/nucl-th.0512056 120000[\layoutstyle, \classification].
121336 2013-03-08 03:38:13 /0512/nucl-th.0512060 130000[{theacknowledgments}, \layoutstyle, \classification].
121337 2013-03-08 03:38:07 /0512/nucl-th.0512049 3410000[\institute].
121338 2013-03-08 03:37:59 /0512/nucl-th.0512044 150000[\includegraphics, \epsfbox, \abstracts, \epsfxsize]; 1 missing file[ws.sty].
121339 2013-03-08 03:37:59 /0512/nucl-th.0512048 030000[\extrasenglish, \dateenglish, \captionsenglish].
121340 2013-03-08 03:37:48 /0512/nucl-th.0512040 4440000[\fmf, \fmflabel, \fmftop, \fmfpoly, \fmfdot, \fmfpen, {fmfgraph*}, \fmfleft, \fmfright, {fmffile}, \fmffreeze, \fmfbottom, \nonum, \fmfforce, {fmfgraph**}, \ead]; 1 missing file[feynmp-sup.sty].
121341 2013-03-08 03:37:47 /0512/nucl-th.0512051 210000[\institute].
121342 2013-03-08 03:37:24 /0512/nucl-th.0512031 510000[\a].
121343 2013-03-08 03:37:23 /0512/nucl-th.0512043 0100000[\extrasenglish, \dateenglish, \captionsenglish]; 1 missing file[soul.sty].
121344 2013-03-08 03:36:53 /0512/nucl-th.0512025 120000[\layoutstyle, \classification].
121345 2013-03-08 03:36:37 /0512/nucl-th.0512020 530000[{theacknowledgments}, \layoutstyle, \classification].
121346 2013-03-08 03:36:14 /0512/nucl-ex.0512038 1120000[\pol]; 1 missing file[colordvi.sty].
121347 2013-03-08 03:36:01 /0512/nucl-th.0512010 040000[\includegraphics, \abstracts, \refcite]; 1 missing file[ws.sty].
121348 2013-03-08 03:35:57 /0512/nucl-ex.0512037 230000[\pacs, \email, \pagerange]; 1 missing file[ActaStyle.cls].
121349 2013-03-08 03:35:57 /0512/nucl-ex.0512042 120000[\layoutstyle, \classification].
121350 2013-03-08 03:35:50 /0512/nucl-ex.0512044 430000[{theacknowledgments}, \layoutstyle, \classification].
121351 2013-03-08 03:35:49 /0512/nucl-ex.0512039 130000[\abstracts, \refcite]; 1 missing file[ws.sty].
121352 2013-03-08 03:35:34 /0512/nucl-ex.0512017 250000[\copyrightyear, \SetInternalRegister, {theacknowledgments}, \layoutstyle, \classification].
121353 2013-03-08 03:35:33 /0512/nucl-ex.0512031 0120000[\issuenumber, \topage, {notes}, \volnumber, \keyword, \recrevdate, \frompage, \PACS, \authors, \edyear]; 1 missing file[hiph-preprint.sty].
121354 2013-03-08 03:35:30 /0512/nucl-ex.0512036 930000[\includegraphics, \abstracts]; 1 missing file[ws.sty].
121355 2013-03-08 03:35:25 /0512/nucl-ex.0512021 310000[\theappendix].
121356 2013-03-08 03:35:24 /0512/nucl-ex.0512014 1010000[\theappendix].
121357 2013-03-08 03:35:22 /0512/nlin.0512070 10540000[Align, \xymatrix, \ar]; 1 missing file[xy.sty].
121358 2013-03-08 03:35:20 /0512/nucl-ex.0512023 230000[\pacs, \email, \pagerange]; 1 missing file[ActaStyle.cls].
121359 2013-03-08 03:35:13 /0512/nucl-ex.0512008 1140000[{theacknowledgments}, \layoutstyle, {ltxfigure}, \classification].
121360 2013-03-08 03:35:08 /0512/nucl-ex.0512005 1840000[\includegraphics, \abstracts]; 1 missing file[ws.sty].
121361 2013-03-08 03:35:00 /0512/nlin.0512076 0630000[\cyrd, \cyrishrt, \CYRE, \CYRB, \CYRERY, \cyrl, \CYRISHRT, \CYRS, \cyrerev, \cyrv, \CYRCH, \CYRU, \cyryu, \CYRC, \cyrsftsn, \cyrk, \CYRL, \CYRT, \cyro, \cyrb, \cyrz, \cyrch, \CYRSHCH, \dateenglish, \cyru, \cyra, \CYRK, \cyrsh, \CYRI, \CYRYA, \CYRD, \cyrf
121362 2013-03-08 03:34:57 /0512/nucl-ex.0512009 0130000[\issuenumber, \topage, {notes}, \volnumber, \keyword, \insertplot, \recrevdate, \frompage, \PACS, \authors, \edyear]; 1 missing file[hiph-art.sty].
121363 2013-03-08 03:34:54 /0512/nucl-ex.0512012 240000[\kword, \abst, \inst, \recdate].
121364 2013-03-08 03:34:43 /0512/nlin.0512040 4090000[\ls, \affiliation, \ns, \pagerange, \volume, \pubyear].
121365 2013-03-08 03:34:35 /0512/math.0512657 26670000[Align, \xyoption, \object, \SelectTips, \xymatrix, \ar]; 1 missing file[xy.sty].
121366 2013-03-08 03:34:25 /0512/nucl-ex.0512002 0100000[\issuenumber, \topage, \volnumber, \keyword, \recrevdate, \frompage, \PACS, \authors, \edyear]; 1 missing file[hiph-preprint.sty].
121367 2013-03-08 03:34:14 /0512/nlin.0512041 1820000[\dfrac, \numberwithin].
121368 2013-03-08 03:33:59 /0512/nlin.0512046 214830000[\Abstract, \ArticleName, {theorem}, \ShortArticleName, \FirstPageHeading, \Address, \LastPageEnding, \Classification, \ArticleDates, \Author, {corollary}, \Email, {remark}, \AuthorNameForHeading, \Keywords].
121369 2013-03-08 03:33:50 /0512/nlin.0512047 2920000[\overset, \psfrag].
121370 2013-03-08 03:33:37 /0512/nlin.0512022 4150000[\includegraphics, \ls, \gtrsim, \lesssim, \ifCUPmtlplainloaded, \affiliation, \ns, \hexnumber]; 1 missing file[jfm.sty].
121371 2013-03-08 03:33:35 /0512/nlin.0512001 14620000[\textnumero]; 1 missing file[T2Aenc.def].
121372 2013-03-08 03:33:21 /0512/nlin.0512032 8160000[{lemma}, {theorem}, \LastPageEnding, \Classification, \ArticleDates, {remark}, \URLaddressMarked, \AuthorNameForHeading, \Abstract, \ArticleName, \ShortArticleName, \FirstPageHeading, \Address, \Author, \Email, \Keywords].
121373 2013-03-08 03:33:19 /0512/nlin.0512044 020000[\@affiliation].
121374 2013-03-08 03:33:14 /0512/nlin.0512023 7300000[\includegraphics, \ls, \gtrsim, \ifCUPmtlplainloaded, \affiliation, \ns, \hexnumber]; 1 missing file[jfm.sty].
121375 2013-03-08 03:33:04 /0512/nlin.0512031 1430000[{keywords}, \PARstart, \IEEEpeerreviewmaketitle]; 1 missing file[IEEEtran.cls].
121376 2013-03-08 03:32:36 /0512/nlin.0512021 0120000[\Abstract, \ArticleName, \ShortArticleName, \FirstPageHeading, \Address, \LastPageEnding, \Classification, \ArticleDates, \Author, \Email, \AuthorNameForHeading, \Keywords].
121377 2013-03-08 03:32:28 /0512/nlin.0512010 3530000[\endSb, \QATOP, \Sb].
121378 2013-03-08 03:32:27 /0512/math.0512619 22540000[Align, \xymatrix, \ar]; 1 missing file[xy.sty].
121379 2013-03-08 03:32:24 /0512/math.0512655 18150000[Align, \xyoption, \xymatrix, \ar]; 1 missing file[xy.sty].
121380 2013-03-08 03:32:09 /1201/1201.3645 540000[\ShortTitle, \email, \FullConference, \speaker]; 1 missing file[PoS.cls].
121381 2013-03-08 03:32:06 /0512/math.0512659 3710000[{pf*}].
121382 2013-03-08 03:32:05 /0512/nlin.0512012 10150000[\Abstract, \ArticleName, \EmailD, \ShortArticleName, \FirstPageHeading, \Address, \LastPageEnding, \Classification, \ArticleDates, \Author, {definition}, {remark}, \AuthorNameForHeading, \Keywords, {proposition}].
121383 2013-03-08 03:31:31 /0512/nlin.0512014 020000[\url, \ord].
121384 2013-03-08 03:31:19 /0512/math.0512646 13820000[\rsfs, \mathfont@].
121385 2013-03-08 03:30:57 /0512/nlin.0512005 40250000[\gs, \gy, \cA, \affiliation, \ga, \pderivin, \gk, \dderiv, \cL, {acknowledgements}, \goto, \gD, \dderivin, \pderiv, \cD, \cE, \nrm, \gl, \gz, \gb, \del, \fracp, \snrm, \gee]; 2 missing files[jfm.cls, lfmath.sty].
121386 2013-03-08 03:30:23 /0512/nlin.0512007 440000[{acknowledgments}, \ls, \affiliation, \ns]; 1 missing file[jfm.cls].
121387 2013-03-08 03:30:13 /0512/math.0512656 1630000[\preccurlyeq, {CD}].
121388 2013-03-08 03:30:12 /0512/nlin.0512006 110000[{comment}].
121389 2013-03-08 03:30:01 /0512/math.0512640 1670000[\dlto, Align, \drto, \dto, \rto, \xymatrix, \ar].
121390 2013-03-08 03:29:55 /0512/math.0512648 44510000[\ppPPer, \oPPer, \Ext, \lt, \Un, \rk, \pppPPer, \dL, \sS, \dD, \rR, \mM, \ch, \cneq, \Ree, \Pic, \bB, \xymatrix, \dR, Align, \pP, \lr, \Mod, \zZ, \aA, \Imm, \tT, \lL, \Stab, \cC, \wW, \id, \FM, \dotimes, \fF, \ar, \iPPer, \Spec, \Coh, \Hom, \oO, \eE, \Su
121391 2013-03-08 03:29:53 /0512/math.0512658 34150000[\@open@row, Align, \@close@row, \xymatrix, \ar]; 1 missing file[xy.sty].
121392 2013-03-08 03:29:40 /0512/math.0512644 43340000[{comment}].
121393 2013-03-08 03:29:19 /0512/math.0512645 8120000[Align, \xymatrix, \ar]; 9 missing files[xycurve.sty, xymatrix.sty, xyline.sty, xyarrow.sty, xycmtip.sty, xycolor.sty, xyrotate.sty, xyframe.sty, xygraph.sty].
121394 2013-03-08 03:29:10 /0512/math.0512634 6940000[Align, \xymatrix, \ar].
121395 2013-03-08 03:28:43 /0512/math.0512621 6550000[Align, \xyoption, \xymatrix, \ar]; 1 missing file[xy.sty].
121396 2013-03-08 03:28:31 /0512/math.0512638 17300000[\qua, \nl, \theurl, \!xleft, \stdspace, \theaddress, \address, \circulararc, \email, \setcoordinatesystem, \psfrag, \thekeywords, \theauthors, \plotsymbolspacing, \!ybot, \MR, \setplotsymbol, \theemail, \!picbox, \thesecondaryclass, \theprimaryclass, \ke
121397 2013-03-08 03:28:29 /0512/math.0512629 510000[\harvarditem].
121398 2013-03-08 03:27:40 /0512/math.0512592 35170000[Align, \relabel, \endrelabelbox, \xymatrix, \relabelbox, \ar]; 1 missing file[xy.sty].
121399 2013-03-08 03:27:15 /0512/math.0512628 650000[\extrasenglish, \geometry, \dateenglish, \captionsenglish]; 1 missing file[xy.sty].
121400 2013-03-08 03:27:10 /0512/math.0512613 2440000[Align, \xymatrix, \ar]; 1 missing file[xy.sty].
<<< >>>

[0] [200] [400] [600] [800] [1000] [1200] [1400] [1600] [1800] [2000] [2200] [2400] [2600] [2800] [3000] [3200] [3400] [3600] [3800] [4000] [4200] [4400] [4600] [4800] [5000] [5200] [5400] [5600] [5800] [6000] [6200] [6400] [6600] [6800] [7000] [7200] [7400] [7600] [7800] [8000] [8200] [8400] [8600] [8800] [9000] [9200] [9400] [9600] [9800] [10000] [10200] [10400] [10600] [10800] [11000] [11200] [11400] [11600] [11800] [12000] [12200] [12400] [12600] [12800] [13000] [13200] [13400] [13600] [13800] [14000] [14200] [14400] [14600] [14800] [15000] [15200] [15400] [15600] [15800] [16000] [16200] [16400] [16600] [16800] [17000] [17200] [17400] [17600] [17800] [18000] [18200] [18400] [18600] [18800] [19000] [19200] [19400] [19600] [19800] [20000] [20200] [20400] [20600] [20800] [21000] [21200] [21400] [21600] [21800] [22000] [22200] [22400] [22600] [22800] [23000] [23200] [23400] [23600] [23800] [24000] [24200] [24400] [24600] [24800] [25000] [25200] [25400] [25600] [25800] [26000] [26200] [26400] [26600] [26800] [27000] [27200] [27400] [27600] [27800] [28000] [28200] [28400] [28600] [28800] [29000] [29200] [29400] [29600] [29800] [30000] [30200] [30400] [30600] [30800] [31000] [31200] [31400] [31600] [31800] [32000] [32200] [32400] [32600] [32800] [33000] [33200] [33400] [33600] [33800] [34000] [34200] [34400] [34600] [34800] [35000] [35200] [35400] [35600] [35800] [36000] [36200] [36400] [36600] [36800] [37000] [37200] [37400] [37600] [37800] [38000] [38200] [38400] [38600] [38800] [39000] [39200] [39400] [39600] [39800] [40000] [40200] [40400] [40600] [40800] [41000] [41200] [41400] [41600] [41800] [42000] [42200] [42400] [42600] [42800] [43000] [43200] [43400] [43600] [43800] [44000] [44200] [44400] [44600] [44800] [45000] [45200] [45400] [45600] [45800] [46000] [46200] [46400] [46600] [46800] [47000] [47200] [47400] [47600] [47800] [48000] [48200] [48400] [48600] [48800] [49000] [49200] [49400] [49600] [49800] [50000] [50200] [50400] [50600] [50800] [51000] [51200] [51400] [51600] [51800] [52000] [52200] [52400] [52600] [52800] [53000] [53200] [53400] [53600] [53800] [54000] [54200] [54400] [54600] [54800] [55000] [55200] [55400] [55600] [55800] [56000] [56200] [56400] [56600] [56800] [57000] [57200] [57400] [57600] [57800] [58000] [58200] [58400] [58600] [58800] [59000] [59200] [59400] [59600] [59800] [60000] [60200] [60400] [60600] [60800] [61000] [61200] [61400] [61600] [61800] [62000] [62200] [62400] [62600] [62800] [63000] [63200] [63400] [63600] [63800] [64000] [64200] [64400] [64600] [64800] [65000] [65200] [65400] [65600] [65800] [66000] [66200] [66400] [66600] [66800] [67000] [67200] [67400] [67600] [67800] [68000] [68200] [68400] [68600] [68800] [69000] [69200] [69400] [69600] [69800] [70000] [70200] [70400] [70600] [70800] [71000] [71200] [71400] [71600] [71800] [72000] [72200] [72400] [72600] [72800] [73000] [73200] [73400] [73600] [73800] [74000] [74200] [74400] [74600] [74800] [75000] [75200] [75400] [75600] [75800] [76000] [76200] [76400] [76600] [76800] [77000] [77200] [77400] [77600] [77800] [78000] [78200] [78400] [78600] [78800] [79000] [79200] [79400] [79600] [79800] [80000] [80200] [80400] [80600] [80800] [81000] [81200] [81400] [81600] [81800] [82000] [82200] [82400] [82600] [82800] [83000] [83200] [83400] [83600] [83800] [84000] [84200] [84400] [84600] [84800] [85000] [85200] [85400] [85600] [85800] [86000] [86200] [86400] [86600] [86800] [87000] [87200] [87400] [87600] [87800] [88000] [88200] [88400] [88600] [88800] [89000] [89200] [89400] [89600] [89800] [90000] [90200] [90400] [90600] [90800] [91000] [91200] [91400] [91600] [91800] [92000] [92200] [92400] [92600] [92800] [93000] [93200] [93400] [93600] [93800] [94000] [94200] [94400] [94600] [94800] [95000] [95200] [95400] [95600] [95800] [96000] [96200] [96400] [96600] [96800] [97000] [97200] [97400] [97600] [97800] [98000] [98200] [98400] [98600] [98800] [99000] [99200] [99400] [99600] [99800] [100000] [100200] [100400] [100600] [100800] [101000] [101200] [101400] [101600] [101800] [102000] [102200] [102400] [102600] [102800] [103000] [103200] [103400] [103600] [103800] [104000] [104200] [104400] [104600] [104800] [105000] [105200] [105400] [105600] [105800] [106000] [106200] [106400] [106600] [106800] [107000] [107200] [107400] [107600] [107800] [108000] [108200] [108400] [108600] [108800] [109000] [109200] [109400] [109600] [109800] [110000] [110200] [110400] [110600] [110800] [111000] [111200] [111400] [111600] [111800] [112000] [112200] [112400] [112600] [112800] [113000] [113200] [113400] [113600] [113800] [114000] [114200] [114400] [114600] [114800] [115000] [115200] [115400] [115600] [115800] [116000] [116200] [116400] [116600] [116800] [117000] [117200] [117400] [117600] [117800] [118000] [118200] [118400] [118600] [118800] [119000] [119200] [119400] [119600] [119800] [120000] [120200] [120400] [120600] [120800] [121000] [121200] [121400] [121600] [121800] [122000] [122200] [122400] [122600] [122800] [123000] [123200] [123400] [123600] [123800] [124000] [124200] [124400] [124600] [124800] [125000] [125200] [125400] [125600] [125800] [126000] [126200] [126400] [126600] [126800] [127000] [127200] [127400] [127600] [127800] [128000] [128200] [128400] [128600] [128800] [129000] [129200] [129400] [129600] [129800] [130000] [130200] [130400] [130600] [130800] [131000] [131200] [131400] [131600] [131800] [132000] [132200] [132400] [132600] [132800] [133000] [133200] [133400] [133600] [133800] [134000] [134200] [134400] [134600] [134800] [135000] [135200] [135400] [135600] [135800] [136000] [136200] [136400] [136600] [136800] [137000] [137200] [137400] [137600] [137800] [138000] [138200] [138400] [138600] [138800] [139000] [139200] [139400] [139600] [139800] [140000] [140200] [140400] [140600] [140800] [141000] [141200] [141400] [141600] [141800] [142000] [142200] [142400] [142600] [142800] [143000] [143200] [143400] [143600] [143800] [144000] [144200] [144400] [144600] [144800] [145000] [145200] [145400] [145600] [145800] [146000] [146200] [146400] [146600] [146800] [147000] [147200] [147400] [147600] [147800] [148000] [148200] [148400] [148600] [148800] [149000] [149200] [149400] [149600] [149800] [150000] [150200] [150400] [150600] [150800] [151000] [151200] [151400] [151600] [151800] [152000] [152200] [152400] [152600] [152800] [153000] [153200] [153400] [153600] [153800] [154000] [154200] [154400] [154600] [154800] [155000] [155200] [155400] [155600] [155800] [156000] [156200] [156400] [156600] [156800] [157000] [157200] [157400] [157600] [157800] [158000] [158200] [158400] [158600] [158800] [159000] [159200] [159400] [159600] [159800] [160000] [160200] [160400] [160600] [160800] [161000] [161200] [161400] [161600] [161800] [162000] [162200] [162400] [162600] [162800] [163000] [163200] [163400] [163600] [163800] [164000] [164200] [164400] [164600]
 
  The service has been written by
Heinrich Stamerjohanns